Juan de Fuca Strait - east entrance: Past 24 Hour Conditions

 

Halibut Bank - 46146

02:00 AM PST 23 November 2014Buoy position: 49.34N 123.72W
This table is a summary of hourly weather conditions for the past 24 hours.
Date / Time
(PST)
Wind(knots) Wave height(m) Wave period(s) Pressure(kPa) Air tempC) Water tempC)
23 November 2014
2:00 E 19 gust 23 0.6 3.0 101.6 9 9
1:00 E 18 gust 21 0.6 3.0 101.7 9 9
0:00 ESE 18 gust 21 0.5 3.0 101.7 9 10
22 November 2014
23:00 E 18 gust 19 0.3 2.0 101.7 9 10
22:00 E 14 gust 16 0.1 2.0 101.7 9 9
21:00 SE 8 gust 10 0.2 4.0 101.7 9 9
20:00 E 6 gust 6 0.1 3.0 101.6 9 9
19:00 calm 0.2 3.0 101.5 9 9
18:00 WSW 2 gust 4 0.1 3.0 101.4 9 9
17:00 WNW 4 gust 4 0.1 4.0 101.3 9 10
16:00 WNW 8 gust 8 0.1 2.0 101.3 9 10
15:00 WNW 10 gust 10 0.2 2.0 101.2 9 10
14:00 W 12 gust 14 0.2 3.0 101.1 10 10
13:00 W 4 gust 8 0.1 2.0 101.0 10 10
12:00 NW 4 gust 4 0.2 6.0 100.9 9 10
11:00 NNW 4 gust 6 0.1 4.0 100.8 9 10
10:00 N 4 gust 6 0.2 6.0 100.7 9 10
9:00 ENE 4 gust 6 0.1 4.0 100.5 9 10
8:00 NNE 4 gust 4 0.2 4.0 100.5 8 10
7:00 E 2 gust 2 0.2 4.0 100.3 9 10
6:00 S 4 gust 4 0.2 4.0 100.3 9 10
5:00 SW 2 gust 2 0.2 3.0 100.2 9 9
4:00 ENE 2 gust 2 0.3 3.0 100.1 9 9
3:00 NNW 6 gust 6 0.4 4.0 100.0 9 9
2:00 WNW 8 gust 12 0.5 3.0 99.9 10 9
 
Map of Pacific - Georgia Basin marine weather areas Tsawwassen Ferry Terminal Sentry Shoal - 46131 Halibut Bank - 46146 La Perouse Bank - 46206 Discovery Island Esquimalt Harbour Kelp Reefs Malahat Race Rocks Lightstation Saturna Island Sheringham Point University of Victoria Victoria Gonzales Victoria Int'l Airport Ballenas Islands Campbell River Airport Comox Airport Entrance Island Fanny Island Nanaimo Airport Sisters Islets Estevan Point Tofino Airport Grief Point Powell River Airport Sechelt Point Atkinson Sand Heads Lightstation Vancouver Harbour Vancouver Int'l Airport West Vancouver Port Alberni Howe Sound - Pam Rocks Squamish Airport